createdAt,value
2018-05-14T00:01:00.923Z,100844.92
2018-05-14T00:03:31.590Z,100846.23
2018-05-14T00:06:00.568Z,100849.42
2018-05-14T00:08:29.198Z,100850.63
2018-05-14T00:10:57.706Z,100847.94
2018-05-14T00:13:26.140Z,100847.86
2018-05-14T00:15:54.694Z,100845.98
2018-05-14T00:18:23.470Z,100844.89
2018-05-14T00:20:52.247Z,100847.70
2018-05-14T00:23:20.970Z,100845.95
2018-05-14T00:25:49.626Z,100844.48
2018-05-14T00:28:18.234Z,100847.61
2018-05-14T00:30:46.678Z,100848.44
2018-05-14T00:33:15.630Z,100843.66
2018-05-14T00:35:44.136Z,100849.77
2018-05-14T00:38:12.614Z,100848.07
2018-05-14T00:40:41.201Z,100849.53
2018-05-14T00:43:09.776Z,100851.68
2018-05-14T00:45:38.410Z,100850.45
2018-05-14T00:48:06.911Z,100852.36
2018-05-14T00:50:35.702Z,100844.05
2018-05-14T00:53:04.503Z,100844.19
2018-05-14T00:55:33.067Z,100842.36
2018-05-14T00:58:01.556Z,100847.55
2018-05-14T01:00:30.515Z,100843.48
2018-05-14T01:02:59.042Z,100846.98
2018-05-14T01:05:27.850Z,100843.72
2018-05-14T01:07:56.464Z,100844.45
2018-05-14T01:10:25.019Z,100842.41
2018-05-14T01:12:53.640Z,100846.52
2018-05-14T01:15:22.161Z,100843.48
2018-05-14T01:17:51.030Z,100841.38
2018-05-14T01:20:19.528Z,100843.86
2018-05-14T01:22:48.135Z,100841.58
2018-05-14T01:25:16.651Z,100838.28
2018-05-14T01:27:45.358Z,100841.06
2018-05-14T01:30:14.054Z,100845.08
2018-05-14T01:32:42.563Z,100840.98
2018-05-14T01:35:11.102Z,100837.34
2018-05-14T01:37:39.632Z,100848.31
2018-05-14T01:40:08.596Z,100842.06
2018-05-14T01:42:37.346Z,100837.45
2018-05-14T01:45:05.941Z,100845.79
2018-05-14T01:47:34.534Z,100846.87
2018-05-14T01:50:02.969Z,100843.75
2018-05-14T01:52:31.652Z,100846.82
2018-05-14T01:55:00.237Z,100838.84
2018-05-14T01:57:28.696Z,100839.59
2018-05-14T01:59:57.147Z,100838.50
2018-05-14T02:02:25.678Z,100829.81
2018-05-14T02:04:54.566Z,100837.36
2018-05-14T02:07:23.049Z,100843.42
2018-05-14T02:09:51.699Z,100841.91
2018-05-14T02:12:20.220Z,100844.08
2018-05-14T02:14:48.663Z,100846.30
2018-05-14T02:17:17.454Z,100849.34
2018-05-14T02:19:45.860Z,100847.47
2018-05-14T02:22:14.560Z,100852.88
2018-05-14T02:24:42.982Z,100851.09
2018-05-14T02:27:11.554Z,100847.77
2018-05-14T02:29:40.162Z,100861.75
2018-05-14T02:32:08.891Z,100848.36
2018-05-14T02:34:37.357Z,100847.47
2018-05-14T02:37:05.831Z,100853.85
2018-05-14T02:39:34.374Z,100842.56
2018-05-14T02:42:03.266Z,100844.84
2018-05-14T02:44:31.835Z,100854.37
2018-05-14T02:47:00.401Z,100849.38
2018-05-14T02:49:28.944Z,100851.28
2018-05-14T02:51:57.619Z,100849.73
2018-05-14T02:54:26.201Z,100843.05
2018-05-14T02:56:54.675Z,100846.94
2018-05-14T02:59:23.196Z,100853.00
2018-05-14T03:01:51.715Z,100854.64
2018-05-14T03:04:20.188Z,100851.16
2018-05-14T03:06:48.717Z,100854.51
2018-05-14T03:09:17.170Z,100849.36
2018-05-14T03:11:45.930Z,100856.39
2018-05-14T03:14:14.532Z,100853.72
2018-05-14T03:16:43.081Z,100856.71
2018-05-14T03:19:11.626Z,100859.33
2018-05-14T03:21:40.396Z,100862.02
2018-05-14T03:24:08.740Z,100866.72
2018-05-14T03:26:37.604Z,100863.78
2018-05-14T03:29:06.177Z,100865.33
2018-05-14T03:31:34.648Z,100873.63
2018-05-14T03:34:03.111Z,100866.24
2018-05-14T03:36:31.668Z,100869.09
2018-05-14T03:39:00.098Z,100876.16
2018-05-14T03:41:28.629Z,100873.98
2018-05-14T03:43:57.078Z,100868.10
2018-05-14T03:46:25.793Z,100870.33
2018-05-14T03:48:54.210Z,100873.66
2018-05-14T03:51:22.746Z,100874.77
2018-05-14T03:53:51.222Z,100872.27
2018-05-14T03:56:19.697Z,100883.17
2018-05-14T04:05:25.116Z,100881.88
2018-05-14T04:07:53.835Z,100882.59
2018-05-14T04:10:22.291Z,100886.36
2018-05-14T04:12:50.923Z,100892.13
2018-05-14T04:15:19.543Z,100884.81
2018-05-14T04:17:48.159Z,100892.35
2018-05-14T04:20:17.031Z,100894.14
2018-05-14T04:22:45.560Z,100893.99
2018-05-14T04:25:14.186Z,100895.78
2018-05-14T04:27:42.674Z,100900.75
2018-05-14T04:30:11.226Z,100896.98
2018-05-14T04:32:39.739Z,100903.45
2018-05-14T04:35:08.804Z,100898.88
2018-05-14T04:37:41.180Z,100899.49
2018-05-14T04:40:10.227Z,100902.92
2018-05-14T04:42:39.106Z,100900.86
2018-05-14T04:45:08.110Z,100907.98
2018-05-14T04:47:37.444Z,100911.77
2018-05-14T04:50:12.728Z,100909.39
2018-05-14T04:52:41.156Z,100908.41
2018-05-14T04:55:09.606Z,100915.97
2018-05-14T04:57:38.143Z,100916.59
2018-05-14T05:00:06.683Z,100908.72
2018-05-14T05:02:35.763Z,100919.59
2018-05-14T05:05:04.282Z,100925.17
2018-05-14T05:07:32.957Z,100915.23
2018-05-14T05:10:01.784Z,100927.77
2018-05-14T05:12:30.332Z,100931.67
2018-05-14T05:14:58.783Z,100936.25
2018-05-14T05:17:27.253Z,100936.94
2018-05-14T05:19:55.933Z,100930.08
2018-05-14T05:22:24.646Z,100928.23
2018-05-14T05:24:53.661Z,100926.08
2018-05-14T05:27:22.183Z,100932.41
2018-05-14T05:29:51.155Z,100935.92
2018-05-14T05:32:21.118Z,100934.62
2018-05-14T05:34:49.655Z,100931.60
2018-05-14T05:37:18.209Z,100930.95
2018-05-14T05:39:46.889Z,100930.87
2018-05-14T05:42:15.608Z,100927.84
2018-05-14T05:44:44.429Z,100929.30
2018-05-14T05:47:12.895Z,100937.62
2018-05-14T05:49:41.319Z,100941.25
2018-05-14T05:52:10.056Z,100944.92
2018-05-14T05:54:38.783Z,100945.50
2018-05-14T05:57:07.304Z,100947.83
2018-05-14T05:59:35.931Z,100942.67
2018-05-14T06:02:04.506Z,100947.82
2018-05-14T06:04:33.063Z,100944.23
2018-05-14T06:07:01.559Z,100947.38
2018-05-14T06:09:30.090Z,100954.90
2018-05-14T06:11:58.619Z,100952.21
2018-05-14T06:14:27.188Z,100948.98
2018-05-14T06:16:55.720Z,100944.73
2018-05-14T06:19:24.380Z,100940.17
2018-05-14T06:21:53.071Z,100950.59
2018-05-14T06:24:21.797Z,100953.62
2018-05-14T06:26:50.573Z,100952.05
2018-05-14T06:29:19.321Z,100949.55
2018-05-14T06:31:47.891Z,100946.05
2018-05-14T06:34:16.478Z,100948.06
2018-05-14T06:36:45.975Z,100952.44
2018-05-14T06:39:14.472Z,100953.11
2018-05-14T06:41:42.990Z,100950.00
2018-05-14T06:44:11.791Z,100950.80
2018-05-14T06:46:40.574Z,100950.17
2018-05-14T06:49:09.286Z,100942.86
2018-05-14T06:51:38.172Z,100945.93
2018-05-14T06:54:06.796Z,100951.38
2018-05-14T06:56:35.267Z,100953.14
2018-05-14T06:59:04.048Z,100952.36
2018-05-14T07:01:32.886Z,100949.71
2018-05-14T07:04:01.772Z,100959.73
2018-05-14T07:06:30.245Z,100957.24
2018-05-14T07:08:58.801Z,100959.78
2018-05-14T07:11:27.632Z,100965.23
2018-05-14T07:13:56.266Z,100963.16
2018-05-14T07:16:25.447Z,100965.55
2018-05-14T07:18:54.035Z,100968.20
2018-05-14T07:21:22.818Z,100967.39
2018-05-14T07:23:51.527Z,100965.91
2018-05-14T07:26:20.496Z,100972.19
2018-05-14T07:28:49.228Z,100968.34
2018-05-14T07:31:17.908Z,100968.13
2018-05-14T07:33:46.543Z,100972.65
2018-05-14T07:36:15.176Z,100969.33
2018-05-14T07:38:43.776Z,100968.66
2018-05-14T07:41:12.294Z,100968.51
2018-05-14T07:43:40.776Z,100970.30
2018-05-14T07:46:10.132Z,100971.23
2018-05-14T07:48:38.732Z,100984.81
2018-05-14T07:51:07.588Z,100977.89
2018-05-14T07:53:36.016Z,100977.93
2018-05-14T07:56:04.622Z,100973.12
2018-05-14T07:58:34.009Z,100970.08
2018-05-14T08:01:02.592Z,100976.02
2018-05-14T08:03:31.351Z,100980.51
2018-05-14T08:05:59.947Z,100983.53
2018-05-14T08:08:28.412Z,100985.47
2018-05-14T08:10:57.190Z,100981.25
2018-05-14T08:13:26.225Z,100984.94
2018-05-14T08:15:54.876Z,100987.55
2018-05-14T08:18:23.956Z,100983.64
2018-05-14T08:20:52.892Z,100993.09
2018-05-14T08:23:21.560Z,100988.75
2018-05-14T08:25:50.512Z,100989.34
2018-05-14T08:28:19.320Z,100995.12
2018-05-14T08:30:48.052Z,101006.38
2018-05-14T08:33:16.708Z,101003.80
2018-05-14T08:35:45.669Z,101002.19
2018-05-14T08:38:14.308Z,101008.24
2018-05-14T08:40:43.044Z,101006.76
2018-05-14T08:43:11.822Z,101005.00
2018-05-14T08:45:40.331Z,101010.13
2018-05-14T08:48:08.974Z,101010.30
2018-05-14T08:50:37.848Z,101019.69
2018-05-14T08:53:06.353Z,101010.58
2018-05-14T08:55:36.862Z,101017.42
2018-05-14T08:58:08.982Z,101016.48
2018-05-14T09:00:38.920Z,101018.22
2018-05-14T09:03:07.938Z,101016.47
2018-05-14T09:05:36.636Z,101014.00
2018-05-14T09:08:05.368Z,101023.82
2018-05-14T09:10:34.878Z,101019.01
2018-05-14T09:13:03.693Z,101018.31
2018-05-14T09:15:32.331Z,101011.70
2018-05-14T09:18:01.982Z,101013.59
2018-05-14T09:20:30.535Z,101023.04
2018-05-14T09:22:59.334Z,101020.44
2018-05-14T09:25:28.044Z,101006.37
2018-05-14T09:27:57.418Z,101009.95
2018-05-14T09:30:26.336Z,101020.29
2018-05-14T09:32:55.683Z,101014.21
2018-05-14T09:35:25.370Z,101010.34
2018-05-14T09:37:55.331Z,101014.42
2018-05-14T09:40:24.270Z,101010.09
2018-05-14T09:42:53.042Z,101004.70
2018-05-14T09:45:21.898Z,101010.92
2018-05-14T09:47:50.775Z,101012.55
2018-05-14T09:50:19.370Z,101011.98
2018-05-14T09:52:48.817Z,101014.16
2018-05-14T09:55:17.787Z,101012.65
2018-05-14T09:57:46.415Z,101020.88
2018-05-14T10:00:15.070Z,101014.20
2018-05-14T10:02:44.621Z,101010.22
2018-05-14T10:05:13.246Z,101006.75
2018-05-14T10:07:42.109Z,101021.88
2018-05-14T10:10:10.657Z,101023.42
2018-05-14T10:12:39.607Z,101012.75
2018-05-14T10:15:08.467Z,101027.84
2018-05-14T10:17:37.220Z,101018.41
2018-05-14T10:20:05.854Z,101014.33
2018-05-14T10:22:34.825Z,101013.77
2018-05-14T10:25:03.307Z,101031.73
2018-05-14T10:27:31.802Z,101015.86
2018-05-14T10:30:00.514Z,101016.59
2018-05-14T10:32:29.195Z,101017.02
2018-05-14T10:34:57.707Z,101010.19
2018-05-14T10:37:26.379Z,101011.02
2018-05-14T10:39:55.279Z,101010.91
2018-05-14T10:42:23.887Z,101005.61
2018-05-14T10:44:52.555Z,101008.25
2018-05-14T10:47:21.138Z,101013.86
2018-05-14T10:49:50.392Z,101011.28
2018-05-14T10:52:18.868Z,101019.83
2018-05-14T10:54:47.697Z,101018.81
2018-05-14T10:57:16.243Z,101020.15
2018-05-14T10:59:48.063Z,101019.97
2018-05-14T11:02:17.123Z,101008.89
2018-05-14T11:04:45.825Z,101010.89
2018-05-14T11:07:15.041Z,101022.38
2018-05-14T11:09:43.610Z,101021.94
2018-05-14T11:12:12.461Z,101025.60
2018-05-14T11:14:41.024Z,101032.44
2018-05-14T11:17:09.857Z,101028.90
2018-05-14T11:19:38.965Z,101034.17
2018-05-14T11:22:07.779Z,101018.47
2018-05-14T11:24:36.992Z,101034.09
2018-05-14T11:27:05.607Z,101025.97
2018-05-14T11:29:34.329Z,101018.91
2018-05-14T11:32:04.345Z,101024.83
2018-05-14T11:34:33.104Z,101028.77
2018-05-14T11:37:02.022Z,101027.41
2018-05-14T11:39:31.129Z,101015.23
2018-05-14T11:42:00.915Z,101021.45
2018-05-14T11:44:29.538Z,101020.70
2018-05-14T11:46:58.176Z,101029.56
2018-05-14T11:49:26.856Z,101020.35
2018-05-14T11:51:56.004Z,101019.24
2018-05-14T11:54:24.902Z,101007.88
2018-05-14T11:56:53.755Z,101029.72
2018-05-14T11:59:22.475Z,101031.36
2018-05-14T12:01:51.299Z,101027.20
2018-05-14T12:04:26.540Z,101026.01
2018-05-14T12:06:56.893Z,101030.09
2018-05-14T12:09:26.188Z,101033.74
2018-05-14T12:11:55.171Z,101021.91
2018-05-14T12:14:24.036Z,101035.23
2018-05-14T12:19:48.727Z,101031.66
2018-05-14T12:22:17.283Z,101023.90
2018-05-14T12:24:45.795Z,101018.02
2018-05-14T12:27:14.452Z,101022.23
2018-05-14T12:29:43.142Z,101018.87
2018-05-14T12:32:11.754Z,101031.64
2018-05-14T12:34:41.500Z,101024.28
2018-05-14T12:37:10.779Z,101034.17
2018-05-14T12:39:39.511Z,101027.09
2018-05-14T12:42:08.205Z,101018.98
2018-05-14T12:44:36.852Z,101027.41
2018-05-14T12:47:05.566Z,101036.95
2018-05-14T12:49:34.826Z,101031.45
2018-05-14T12:52:04.429Z,101028.89
2018-05-14T12:54:33.105Z,101024.28
2018-05-14T12:57:01.758Z,101027.17
2018-05-14T12:59:30.423Z,101037.30
2018-05-14T13:01:59.131Z,101037.84
2018-05-14T13:04:27.651Z,101034.65
2018-05-14T13:06:56.372Z,101036.64
2018-05-14T13:09:24.942Z,101034.20
2018-05-14T13:11:53.543Z,101034.10
2018-05-14T13:14:22.129Z,101033.09
2018-05-14T13:16:50.863Z,101047.34
2018-05-14T13:19:19.547Z,101055.31
2018-05-14T13:21:48.084Z,101042.93
2018-05-14T13:24:16.865Z,101030.92
2018-05-14T13:26:45.563Z,101039.36
2018-05-14T13:29:15.021Z,101040.50
2018-05-14T13:31:43.999Z,101040.41
2018-05-14T13:34:12.576Z,101043.14
2018-05-14T13:36:41.139Z,101045.02
2018-05-14T13:39:09.812Z,101039.34
2018-05-14T13:41:38.371Z,101031.53
2018-05-14T13:44:06.892Z,101022.85
2018-05-14T13:46:35.711Z,101017.67
2018-05-14T13:49:04.288Z,101013.22
2018-05-14T13:51:32.796Z,101014.81
2018-05-14T13:54:01.500Z,101012.84
2018-05-14T13:56:30.015Z,101017.44
2018-05-14T13:58:58.520Z,101020.01
2018-05-14T14:01:28.748Z,101015.78
2018-05-14T14:03:57.683Z,101016.51
2018-05-14T14:06:26.238Z,101014.55
2018-05-14T14:08:54.904Z,101016.24
2018-05-14T14:11:23.489Z,101015.78
2018-05-14T14:16:27.948Z,101014.48
2018-05-14T14:18:56.985Z,101010.88
2018-05-14T14:21:25.540Z,101022.98
2018-05-14T14:23:54.082Z,101026.02
2018-05-14T14:26:22.837Z,101010.72
2018-05-14T14:28:51.704Z,101008.02
2018-05-14T14:31:22.753Z,101017.19
2018-05-14T14:33:51.359Z,101019.23
2018-05-14T14:36:20.101Z,101029.98
2018-05-14T14:38:48.669Z,101016.40
2018-05-14T14:41:17.214Z,101018.45
2018-05-14T14:43:45.764Z,101022.69
2018-05-14T14:46:14.292Z,101024.24
2018-05-14T14:48:42.861Z,101014.38
2018-05-14T14:51:11.411Z,101016.70
2018-05-14T14:53:39.982Z,100994.83
2018-05-14T14:56:08.712Z,100995.94
2018-05-14T14:58:37.259Z,101007.65
2018-05-14T15:01:06.283Z,101003.84
2018-05-14T15:03:36.166Z,101006.00
2018-05-14T15:06:05.271Z,100994.36
2018-05-14T15:08:33.957Z,100988.11
2018-05-14T15:11:02.471Z,101001.63
2018-05-14T15:13:31.134Z,100999.19
2018-05-14T15:15:59.726Z,100990.45
2018-05-14T15:18:28.468Z,100990.77
2018-05-14T15:20:57.046Z,100992.06
2018-05-14T15:23:25.614Z,100993.67
2018-05-14T15:25:54.115Z,100994.06
2018-05-14T15:28:23.880Z,100982.45
2018-05-14T15:30:53.563Z,100986.81
2018-05-14T15:33:22.070Z,100988.55
2018-05-14T15:35:50.599Z,100991.20
2018-05-14T15:38:19.368Z,100992.66
2018-05-14T15:40:49.508Z,100997.02
2018-05-14T15:43:18.987Z,101003.01
2018-05-14T15:45:47.567Z,100995.09
2018-05-14T15:48:17.199Z,100999.87
2018-05-14T15:50:46.649Z,101007.98
2018-05-14T15:53:15.588Z,101003.42
2018-05-14T15:55:44.146Z,100997.09
2018-05-14T15:58:14.847Z,100997.62
2018-05-14T16:00:43.535Z,100999.44
2018-05-14T16:03:12.202Z,100997.28
2018-05-14T16:05:42.157Z,101012.30
2018-05-14T16:08:11.296Z,101002.60
2018-05-14T16:10:39.802Z,101001.18
2018-05-14T16:13:08.896Z,100999.45
2018-05-14T16:15:37.383Z,101003.00
2018-05-14T16:18:06.348Z,100998.91
2018-05-14T16:20:34.972Z,100997.50
2018-05-14T16:23:04.145Z,100994.38
2018-05-14T16:25:32.848Z,101005.54
2018-05-14T16:28:01.388Z,101004.20
2018-05-14T16:30:29.954Z,101004.92
2018-05-14T16:32:58.448Z,100999.24
2018-05-14T16:35:26.914Z,100998.44
2018-05-14T16:37:55.558Z,101001.03
2018-05-14T16:40:24.017Z,101003.44
2018-05-14T16:42:52.672Z,101001.50
2018-05-14T16:45:21.292Z,101006.77
2018-05-14T16:47:49.935Z,101004.62
2018-05-14T16:50:18.483Z,100999.14
2018-05-14T16:52:46.921Z,101001.28
2018-05-14T16:55:15.607Z,100999.78
2018-05-14T16:57:44.323Z,100999.52
2018-05-14T17:00:12.790Z,101005.03
2018-05-14T17:02:41.437Z,101005.91
2018-05-14T17:05:11.120Z,101004.44
2018-05-14T17:07:40.209Z,101018.02
2018-05-14T17:10:08.801Z,101018.31
2018-05-14T17:12:37.745Z,101004.57
2018-05-14T17:15:06.465Z,101012.61
2018-05-14T17:17:35.111Z,101017.27
2018-05-14T17:20:03.772Z,101019.06
2018-05-14T17:22:32.380Z,101014.11
2018-05-14T17:25:01.645Z,101016.97
2018-05-14T17:27:30.140Z,101009.84
2018-05-14T17:29:58.643Z,101013.29
2018-05-14T17:32:27.205Z,101010.13
2018-05-14T17:34:55.683Z,101012.39
2018-05-14T17:37:24.231Z,101015.48
2018-05-14T17:39:52.692Z,101014.13
2018-05-14T17:42:21.290Z,101020.11
2018-05-14T17:44:50.003Z,101024.47
2018-05-14T17:47:18.771Z,101019.83
2018-05-14T17:49:47.251Z,101022.48
2018-05-14T17:52:15.795Z,101018.78
2018-05-14T17:54:44.524Z,101031.67
2018-05-14T17:57:13.505Z,101027.98
2018-05-14T17:59:42.037Z,101027.00
2018-05-14T18:02:10.704Z,101030.76
2018-05-14T18:04:39.215Z,101028.48
2018-05-14T18:07:07.743Z,101029.11
2018-05-14T18:09:36.403Z,101030.53
2018-05-14T18:12:05.308Z,101031.30
2018-05-14T18:14:33.987Z,101031.47
2018-05-14T18:17:02.600Z,101037.64
2018-05-14T18:19:35.720Z,101039.98
2018-05-14T18:22:08.749Z,101035.98
2018-05-14T18:24:37.291Z,101043.44
2018-05-14T18:27:09.590Z,101045.41
2018-05-14T18:29:39.471Z,101048.45
2018-05-14T18:32:08.494Z,101044.28
2018-05-14T18:34:39.677Z,101052.43
2018-05-14T18:37:08.415Z,101043.92
2018-05-14T18:39:36.832Z,101046.55
2018-05-14T18:42:05.620Z,101053.01
2018-05-14T18:44:37.160Z,101056.84
2018-05-14T18:47:05.854Z,101058.92
2018-05-14T18:49:34.320Z,101060.42
2018-05-14T18:52:03.164Z,101066.39
2018-05-14T18:54:31.775Z,101066.11
2018-05-14T18:57:00.392Z,101065.77
2018-05-14T18:59:28.926Z,101071.28
2018-05-14T19:01:57.507Z,101070.87
2018-05-14T19:04:27.341Z,101080.13
2018-05-14T19:06:56.113Z,101082.64
2018-05-14T19:09:24.648Z,101079.27
2018-05-14T19:11:53.537Z,101082.69
2018-05-14T19:14:22.105Z,101090.39
2018-05-14T19:16:55.840Z,101089.61
2018-05-14T19:19:24.344Z,101098.23
2018-05-14T19:21:52.961Z,101103.16
2018-05-14T19:24:21.547Z,101104.03
2018-05-14T19:26:50.242Z,101101.84
2018-05-14T19:29:25.211Z,101108.55
2018-05-14T19:31:54.531Z,101109.58
2018-05-14T19:34:28.669Z,101110.19
2018-05-14T19:36:57.264Z,101108.72
2018-05-14T19:39:29.887Z,101116.31
2018-05-14T19:41:58.596Z,101114.36
2018-05-14T19:44:27.536Z,101116.93
2018-05-14T19:46:56.939Z,101116.12
2018-05-14T19:49:28.354Z,101116.72
2018-05-14T19:52:00.902Z,101124.92
2018-05-14T19:54:30.336Z,101115.36
2018-05-14T19:56:59.117Z,101121.66
2018-05-14T19:59:27.944Z,101123.27
2018-05-14T20:01:56.545Z,101121.93
2018-05-14T20:04:25.327Z,101120.11
2018-05-14T20:06:55.945Z,101115.53
2018-05-14T20:09:27.261Z,101122.97
2018-05-14T20:11:56.249Z,101120.77
2018-05-14T20:14:24.720Z,101122.39
2018-05-14T20:16:53.223Z,101118.04
2018-05-14T20:19:21.644Z,101122.34
2018-05-14T20:21:50.372Z,101127.48
2018-05-14T20:24:19.565Z,101123.91
2018-05-14T20:26:48.300Z,101126.61
2018-05-14T20:29:16.928Z,101127.46
2018-05-14T20:31:45.504Z,101130.05
2018-05-14T20:34:13.942Z,101125.52
2018-05-14T20:36:42.495Z,101129.53
2018-05-14T20:39:11.127Z,101121.06
2018-05-14T20:41:39.886Z,101140.83
2018-05-14T20:44:08.323Z,101138.74
2018-05-14T20:46:36.907Z,101143.33
2018-05-14T20:49:05.344Z,101138.25
2018-05-14T20:51:33.935Z,101146.92
2018-05-14T20:54:02.373Z,101139.93
2018-05-14T20:56:30.902Z,101141.97
2018-05-14T20:58:59.413Z,101142.05
2018-05-14T21:01:28.186Z,101141.75
2018-05-14T21:03:56.787Z,101142.59
2018-05-14T21:06:25.287Z,101151.25
2018-05-14T21:08:54.071Z,101145.64
2018-05-14T21:11:22.791Z,101145.56
2018-05-14T21:13:51.412Z,101154.41
2018-05-14T21:16:19.934Z,101150.62
2018-05-14T21:18:48.419Z,101148.70
2018-05-14T21:21:17.292Z,101154.91
2018-05-14T21:23:45.775Z,101160.22
2018-05-14T21:26:14.584Z,101162.26
2018-05-14T21:28:43.380Z,101156.37
2018-05-14T21:31:11.994Z,101161.40
2018-05-14T21:33:40.495Z,101168.67
2018-05-14T21:36:09.147Z,101165.42
2018-05-14T21:38:37.863Z,101168.03
2018-05-14T21:41:06.529Z,101167.40
2018-05-14T21:43:35.398Z,101170.47
2018-05-14T21:46:04.488Z,101169.18
2018-05-14T21:48:33.111Z,101163.87
2018-05-14T21:51:01.743Z,101164.45
2018-05-14T21:53:31.074Z,101170.95
2018-05-14T21:55:59.585Z,101162.39
2018-05-14T21:58:28.864Z,101168.09
2018-05-14T22:00:57.679Z,101166.36
2018-05-14T22:03:26.263Z,101173.03
2018-05-14T22:05:54.848Z,101178.42
2018-05-14T22:08:23.522Z,101174.99
2018-05-14T22:10:52.242Z,101172.88
2018-05-14T22:13:21.087Z,101178.61
2018-05-14T22:15:49.848Z,101169.48
2018-05-14T22:18:18.513Z,101169.49
2018-05-14T22:20:47.012Z,101177.52
2018-05-14T22:23:15.940Z,101171.41
2018-05-14T22:25:44.491Z,101171.31
2018-05-14T22:28:13.411Z,101166.20
2018-05-14T22:30:41.891Z,101169.66
2018-05-14T22:33:10.511Z,101166.24
2018-05-14T22:35:39.023Z,101165.42
2018-05-14T22:38:07.555Z,101164.41
2018-05-14T22:40:36.247Z,101168.55
2018-05-14T22:43:04.872Z,101166.22
2018-05-14T22:45:33.367Z,101172.07
2018-05-14T22:48:01.792Z,101166.70
2018-05-14T22:50:30.279Z,101175.61
2018-05-14T22:52:58.774Z,101172.92
2018-05-14T22:55:27.574Z,101174.62
2018-05-14T22:57:56.114Z,101174.94
2018-05-14T23:00:25.109Z,101172.37
2018-05-14T23:02:53.526Z,101166.85
2018-05-14T23:05:22.240Z,101168.13
2018-05-14T23:07:50.721Z,101171.59
2018-05-14T23:10:19.215Z,101173.42
2018-05-14T23:12:47.878Z,101172.33
2018-05-14T23:15:16.441Z,101172.37
2018-05-14T23:17:44.862Z,101166.97
2018-05-14T23:20:13.534Z,101171.20
2018-05-14T23:22:42.576Z,101179.74
2018-05-14T23:25:11.066Z,101176.08
2018-05-14T23:27:39.525Z,101177.25
2018-05-14T23:30:08.289Z,101172.30
2018-05-14T23:32:36.957Z,101175.53
2018-05-14T23:35:05.642Z,101177.23
2018-05-14T23:37:34.075Z,101176.89
2018-05-14T23:40:02.473Z,101186.03
2018-05-14T23:42:30.942Z,101178.56
2018-05-14T23:44:59.551Z,101177.73
2018-05-14T23:47:28.068Z,101177.31
2018-05-14T23:49:56.707Z,101177.32
2018-05-14T23:52:25.172Z,101176.36
2018-05-14T23:54:53.882Z,101169.47
2018-05-14T23:57:22.373Z,101172.08
2018-05-14T23:59:50.800Z,101174.16
